createdAt,value
2019-03-27T00:01:31.663Z,2.30
2019-03-27T00:04:00.708Z,2.33
2019-03-27T00:06:29.766Z,2.93
2019-03-27T00:08:58.829Z,3.40
2019-03-27T00:11:27.879Z,2.40
2019-03-27T00:13:56.993Z,2.77
2019-03-27T00:16:26.047Z,3.63
2019-03-27T00:18:55.104Z,2.97
2019-03-27T00:21:24.169Z,2.93
2019-03-27T00:23:53.314Z,3.17
2019-03-27T00:26:22.637Z,2.97
2019-03-27T00:28:51.685Z,2.60
2019-03-27T00:31:20.725Z,3.10
2019-03-27T00:33:49.776Z,2.97
2019-03-27T00:36:19.124Z,3.53
2019-03-27T00:38:48.183Z,3.20
2019-03-27T00:41:17.300Z,2.60
2019-03-27T00:43:46.349Z,3.83
2019-03-27T00:46:15.409Z,3.40
2019-03-27T00:48:44.749Z,2.93
2019-03-27T00:51:13.801Z,2.90
2019-03-27T00:53:42.857Z,2.90
2019-03-27T00:56:11.906Z,3.47
2019-03-27T00:58:40.953Z,2.70
2019-03-27T01:01:13.785Z,2.67
2019-03-27T01:03:43.168Z,3.40
2019-03-27T01:06:13.480Z,3.20
2019-03-27T01:08:42.550Z,3.10
2019-03-27T01:11:11.585Z,3.43
2019-03-27T01:13:40.648Z,3.37
2019-03-27T01:16:09.687Z,3.60
2019-03-27T01:18:38.746Z,3.27
2019-03-27T01:21:07.808Z,2.60
2019-03-27T01:23:36.856Z,3.53
2019-03-27T01:26:05.918Z,2.70
2019-03-27T01:28:34.960Z,2.87
2019-03-27T01:31:04.041Z,3.10
2019-03-27T01:33:33.094Z,3.30
2019-03-27T01:36:02.133Z,4.20
2019-03-27T01:38:31.188Z,3.80
2019-03-27T01:41:00.321Z,4.17
2019-03-27T01:43:29.383Z,3.80
2019-03-27T01:45:58.452Z,3.10
2019-03-27T01:48:27.529Z,4.83
2019-03-27T01:50:56.618Z,4.57
2019-03-27T01:53:25.677Z,3.80
2019-03-27T01:55:54.741Z,4.77
2019-03-27T01:58:23.870Z,4.77
2019-03-27T02:00:52.912Z,4.80
2019-03-27T02:03:21.978Z,5.23
2019-03-27T02:05:51.033Z,3.90
2019-03-27T02:08:20.143Z,3.83
2019-03-27T02:10:49.328Z,3.37
2019-03-27T02:13:18.368Z,3.73
2019-03-27T02:15:48.220Z,3.90
2019-03-27T02:18:17.617Z,5.00
2019-03-27T02:20:46.677Z,5.47
2019-03-27T02:23:15.712Z,4.10
2019-03-27T02:25:44.763Z,4.43
2019-03-27T02:28:13.791Z,4.10
2019-03-27T02:30:42.872Z,4.60
2019-03-27T02:33:11.908Z,4.27
2019-03-27T02:35:40.967Z,4.40
2019-03-27T02:38:10.015Z,4.10
2019-03-27T02:40:39.051Z,3.70
2019-03-27T02:43:08.083Z,4.37
2019-03-27T02:45:37.134Z,3.50
2019-03-27T02:48:06.196Z,4.47
2019-03-27T02:50:35.237Z,4.20
2019-03-27T02:53:04.293Z,5.90
2019-03-27T02:55:33.325Z,4.80
2019-03-27T02:58:38.635Z,5.63
2019-03-27T03:01:07.668Z,4.77
2019-03-27T03:03:36.667Z,4.00
2019-03-27T03:06:05.649Z,4.37
2019-03-27T03:08:34.622Z,4.73
2019-03-27T03:11:03.725Z,4.97
2019-03-27T03:13:32.744Z,4.97
2019-03-27T03:16:01.784Z,4.57
2019-03-27T03:18:30.817Z,4.43
2019-03-27T03:20:59.801Z,4.33
2019-03-27T03:23:29.122Z,4.57
2019-03-27T03:25:58.095Z,5.10
2019-03-27T03:28:27.131Z,6.13
2019-03-27T03:30:56.188Z,5.43
2019-03-27T03:33:25.202Z,3.90
2019-03-27T03:35:54.265Z,4.93
2019-03-27T03:38:23.268Z,4.70
2019-03-27T03:40:52.348Z,5.03
2019-03-27T03:43:21.377Z,6.27
2019-03-27T03:45:50.359Z,5.33
2019-03-27T03:48:19.404Z,5.73
2019-03-27T03:50:48.435Z,5.60
2019-03-27T03:53:17.805Z,6.03
2019-03-27T03:55:46.832Z,5.63
2019-03-27T03:58:16.958Z,5.33
2019-03-27T04:00:46.360Z,4.80
2019-03-27T04:03:15.354Z,4.47
2019-03-27T04:05:44.373Z,4.00
2019-03-27T04:08:13.629Z,4.80
2019-03-27T04:10:43.275Z,5.30
2019-03-27T04:13:12.273Z,5.30
2019-03-27T04:15:41.290Z,5.13
2019-03-27T04:18:10.330Z,4.63
2019-03-27T04:20:39.326Z,4.70
2019-03-27T04:23:08.355Z,4.90
2019-03-27T04:26:07.191Z,4.40
2019-03-27T04:28:08.361Z,5.63
2019-03-27T04:30:37.391Z,5.70
2019-03-27T04:33:06.496Z,4.73
2019-03-27T04:35:35.503Z,5.27
2019-03-27T04:38:04.532Z,5.50
2019-03-27T04:40:33.834Z,5.00
2019-03-27T04:43:02.830Z,5.47
2019-03-27T04:45:32.081Z,5.53
2019-03-27T04:48:01.090Z,5.00
2019-03-27T04:50:30.112Z,5.70
2019-03-27T04:52:59.089Z,5.57
2019-03-27T04:55:28.085Z,5.80
2019-03-27T04:57:57.095Z,4.83
2019-03-27T05:00:26.103Z,5.17
2019-03-27T05:02:55.399Z,5.10
2019-03-27T05:05:24.405Z,6.10
2019-03-27T05:07:53.478Z,5.10
2019-03-27T05:10:22.492Z,5.90
2019-03-27T05:12:51.505Z,5.00
2019-03-27T05:15:20.508Z,7.40
2019-03-27T05:17:49.538Z,5.40
2019-03-27T05:20:18.552Z,6.17
2019-03-27T05:22:47.556Z,6.30
2019-03-27T05:25:16.558Z,5.90
2019-03-27T05:27:45.562Z,5.30
2019-03-27T05:30:18.219Z,4.93
2019-03-27T05:32:47.235Z,5.60
2019-03-27T05:35:16.237Z,5.40
2019-03-27T05:37:45.423Z,5.90
2019-03-27T05:40:14.523Z,6.23
2019-03-27T05:42:43.532Z,7.80
2019-03-27T05:45:12.582Z,7.37
2019-03-27T05:47:41.585Z,7.37
2019-03-27T05:50:10.647Z,6.63
2019-03-27T05:52:39.824Z,6.90
2019-03-27T05:55:08.922Z,8.37
2019-03-27T05:57:37.975Z,7.07
2019-03-27T06:00:07.056Z,6.97
2019-03-27T06:02:36.049Z,7.10
2019-03-27T06:05:05.272Z,7.20
2019-03-27T06:07:34.298Z,5.83
2019-03-27T06:10:03.372Z,6.90
2019-03-27T06:12:32.397Z,6.20
2019-03-27T06:15:01.370Z,8.67
2019-03-27T06:17:30.453Z,7.13
2019-03-27T06:19:59.472Z,7.07
2019-03-27T06:22:28.771Z,7.30
2019-03-27T06:24:57.782Z,6.80
2019-03-27T06:27:26.810Z,6.03
2019-03-27T06:29:55.916Z,8.27
2019-03-27T06:32:25.064Z,7.27
2019-03-27T06:34:54.129Z,6.80
2019-03-27T06:37:23.233Z,8.43
2019-03-27T06:39:52.317Z,6.90
2019-03-27T06:42:21.385Z,8.00
2019-03-27T06:44:50.489Z,9.53
2019-03-27T06:47:19.810Z,9.57
2019-03-27T06:49:48.900Z,9.33
2019-03-27T06:52:17.953Z,6.97
2019-03-27T06:54:47.051Z,7.33
2019-03-27T06:57:16.058Z,8.83
2019-03-27T06:59:45.458Z,7.87
2019-03-27T07:02:14.559Z,8.63
2019-03-27T07:04:43.693Z,9.57
2019-03-27T07:07:12.757Z,9.53
2019-03-27T07:09:42.663Z,8.40
2019-03-27T07:12:21.162Z,8.97
2019-03-27T07:14:42.637Z,8.00
2019-03-27T07:17:11.651Z,7.33
2019-03-27T07:19:40.740Z,8.37
2019-03-27T07:22:09.754Z,7.07
2019-03-27T07:24:38.748Z,7.23
2019-03-27T07:27:07.829Z,7.73
2019-03-27T07:29:36.932Z,7.37
2019-03-27T07:32:05.952Z,8.00
2019-03-27T07:34:34.951Z,7.93
2019-03-27T07:37:04.023Z,7.43
2019-03-27T07:39:33.690Z,8.10
2019-03-27T07:42:02.713Z,7.93
2019-03-27T07:44:31.807Z,7.57
2019-03-27T07:47:00.815Z,8.27
2019-03-27T07:49:29.926Z,6.73
2019-03-27T07:51:58.966Z,6.33
2019-03-27T07:54:28.013Z,6.43
2019-03-27T07:56:57.021Z,7.30
2019-03-27T07:59:26.114Z,6.23
2019-03-27T08:01:55.377Z,6.17
2019-03-27T08:04:24.507Z,5.40
2019-03-27T08:06:53.591Z,6.27
2019-03-27T08:09:23.159Z,6.00
2019-03-27T08:11:52.260Z,5.00
2019-03-27T08:14:21.276Z,4.87
2019-03-27T08:16:50.299Z,4.63
2019-03-27T08:19:19.317Z,5.30
2019-03-27T08:21:48.333Z,4.77
2019-03-27T08:24:17.327Z,4.17
2019-03-27T08:26:46.326Z,4.80
2019-03-27T08:29:15.600Z,3.50
2019-03-27T08:31:44.686Z,3.63
2019-03-27T08:34:14.005Z,3.60
2019-03-27T08:36:43.216Z,3.73
2019-03-27T08:39:12.699Z,3.47
2019-03-27T08:41:41.721Z,3.70
2019-03-27T08:44:10.704Z,3.23
2019-03-27T08:46:39.723Z,3.13
2019-03-27T08:49:21.262Z,3.23
2019-03-27T08:51:39.645Z,3.60
2019-03-27T08:54:08.753Z,4.03
2019-03-27T08:56:37.792Z,3.47
2019-03-27T08:59:07.186Z,3.30
2019-03-27T09:01:36.267Z,3.10
2019-03-27T09:04:05.269Z,3.20
2019-03-27T09:06:34.446Z,3.43
2019-03-27T09:09:06.003Z,3.87
2019-03-27T09:11:35.094Z,3.47
2019-03-27T09:14:04.178Z,2.77
2019-03-27T09:16:33.278Z,3.13
2019-03-27T09:19:02.260Z,2.70
2019-03-27T09:21:31.365Z,2.63
2019-03-27T09:24:00.348Z,2.33
2019-03-27T09:26:29.356Z,3.23
2019-03-27T09:28:58.452Z,3.37
2019-03-27T09:31:27.566Z,2.10
2019-03-27T09:33:56.573Z,2.97
2019-03-27T09:36:25.666Z,2.73
2019-03-27T09:38:54.690Z,2.30
2019-03-27T09:41:23.828Z,2.93
2019-03-27T09:43:52.903Z,2.50
2019-03-27T09:46:21.982Z,2.40
2019-03-27T09:48:51.132Z,2.10
2019-03-27T09:51:20.129Z,2.23
2019-03-27T09:53:49.237Z,2.00
2019-03-27T09:56:19.638Z,1.93
2019-03-27T09:58:48.788Z,3.00
2019-03-27T10:01:17.807Z,2.43
2019-03-27T10:03:46.873Z,2.27
2019-03-27T10:06:15.888Z,2.37
2019-03-27T10:08:44.963Z,1.90
2019-03-27T10:11:13.989Z,2.53
2019-03-27T10:13:43.082Z,2.20
2019-03-27T10:16:12.199Z,2.20
2019-03-27T10:18:41.219Z,2.00
2019-03-27T10:21:10.306Z,2.23
2019-03-27T10:23:39.302Z,1.50
2019-03-27T10:26:08.383Z,2.27
2019-03-27T10:28:37.454Z,2.20
2019-03-27T10:31:06.792Z,2.53
2019-03-27T10:33:35.819Z,1.73
2019-03-27T10:36:04.934Z,2.00
2019-03-27T10:38:33.925Z,2.23
2019-03-27T10:41:03.046Z,1.73
2019-03-27T10:43:32.138Z,2.10
2019-03-27T10:46:01.216Z,1.47
2019-03-27T10:48:30.273Z,2.00
2019-03-27T10:50:59.377Z,2.67
2019-03-27T10:53:28.461Z,1.70
2019-03-27T10:55:57.539Z,1.67
2019-03-27T10:58:26.612Z,1.83
2019-03-27T11:00:55.972Z,2.00
2019-03-27T11:03:24.977Z,1.60
2019-03-27T11:05:53.955Z,1.97
2019-03-27T11:08:23.183Z,3.07
2019-03-27T11:10:52.166Z,2.17
2019-03-27T11:13:21.169Z,1.97
2019-03-27T11:15:50.191Z,1.80
2019-03-27T11:18:19.610Z,1.83
2019-03-27T11:20:48.677Z,1.60
2019-03-27T11:23:17.772Z,2.27
2019-03-27T11:25:46.872Z,1.90
2019-03-27T11:28:15.950Z,1.90
2019-03-27T11:30:48.228Z,2.03
2019-03-27T11:33:15.746Z,2.03
2019-03-27T11:35:44.718Z,1.90
2019-03-27T11:38:13.731Z,2.07
2019-03-27T11:40:42.751Z,2.27
2019-03-27T11:43:11.757Z,2.20
2019-03-27T11:45:40.748Z,2.20
2019-03-27T11:48:09.835Z,2.17
2019-03-27T11:50:45.291Z,1.70
2019-03-27T11:53:09.669Z,2.50
2019-03-27T11:55:38.984Z,1.67
2019-03-27T11:58:08.333Z,2.13
2019-03-27T12:00:37.409Z,2.17
2019-03-27T12:03:06.387Z,2.70
2019-03-27T12:05:35.381Z,3.40
2019-03-27T12:08:04.487Z,2.33
2019-03-27T12:10:33.489Z,2.10
2019-03-27T12:13:02.764Z,2.30
2019-03-27T12:15:43.665Z,1.90
2019-03-27T12:18:13.974Z,2.77
2019-03-27T12:20:42.988Z,2.80
2019-03-27T12:23:12.295Z,2.10
2019-03-27T12:25:41.603Z,2.90
2019-03-27T12:28:10.648Z,3.30
2019-03-27T12:30:39.669Z,3.27
2019-03-27T12:33:09.047Z,2.90
2019-03-27T12:35:38.086Z,3.10
2019-03-27T12:38:07.182Z,2.80
2019-03-27T12:40:36.882Z,3.70
2019-03-27T12:43:05.874Z,3.37
2019-03-27T12:45:35.071Z,3.00
2019-03-27T12:48:04.699Z,3.13
2019-03-27T12:50:33.792Z,2.90
2019-03-27T12:53:03.041Z,2.93
2019-03-27T12:55:32.061Z,2.27
2019-03-27T12:58:01.141Z,2.03
2019-03-27T13:00:30.156Z,1.73
2019-03-27T13:02:59.574Z,2.00
2019-03-27T13:05:28.664Z,2.43
2019-03-27T13:07:57.979Z,2.00
2019-03-27T13:10:27.045Z,2.60
2019-03-27T13:12:56.281Z,2.40
2019-03-27T13:15:25.314Z,2.13
2019-03-27T13:17:54.297Z,2.77
2019-03-27T13:20:23.325Z,2.90
2019-03-27T13:22:52.313Z,2.53
2019-03-27T13:25:21.314Z,3.03
2019-03-27T13:27:50.418Z,2.60
2019-03-27T13:30:19.408Z,2.77
2019-03-27T13:32:48.393Z,3.37
2019-03-27T13:35:17.408Z,2.40
2019-03-27T13:37:46.488Z,3.43
2019-03-27T13:40:15.502Z,3.40
2019-03-27T13:42:44.582Z,3.27
2019-03-27T13:45:13.703Z,3.53
2019-03-27T13:47:42.701Z,2.63
2019-03-27T13:50:13.159Z,3.50
2019-03-27T13:52:42.663Z,2.77
2019-03-27T13:55:11.977Z,3.97
2019-03-27T13:57:40.972Z,2.63
2019-03-27T14:00:11.815Z,3.30
2019-03-27T14:02:40.921Z,2.57
2019-03-27T14:05:11.185Z,2.53
2019-03-27T14:07:40.276Z,2.50
2019-03-27T14:10:09.353Z,2.60
2019-03-27T14:12:38.421Z,1.70
2019-03-27T14:15:09.016Z,1.90
2019-03-27T14:17:38.086Z,1.97
2019-03-27T14:20:07.235Z,1.30
2019-03-27T14:22:36.362Z,1.40
2019-03-27T14:25:06.560Z,0.97
2019-03-27T14:27:35.592Z,1.30
2019-03-27T14:30:05.642Z,0.90
2019-03-27T14:32:34.719Z,1.00
2019-03-27T14:35:03.776Z,1.50
2019-03-27T14:37:32.869Z,1.67
2019-03-27T14:40:02.181Z,1.40
2019-03-27T14:42:31.624Z,1.00
2019-03-27T14:45:00.712Z,1.67
2019-03-27T14:47:29.733Z,1.40
2019-03-27T14:49:58.819Z,1.00
2019-03-27T14:52:27.821Z,1.57
2019-03-27T14:54:56.897Z,1.43
2019-03-27T14:57:25.899Z,1.50
2019-03-27T14:59:54.953Z,1.20
2019-03-27T15:02:23.979Z,1.60
2019-03-27T15:04:52.985Z,1.40
2019-03-27T15:07:22.091Z,1.20
2019-03-27T15:09:51.108Z,1.47
2019-03-27T15:12:20.117Z,1.20
2019-03-27T15:14:49.190Z,1.40
2019-03-27T15:17:18.184Z,1.20
2019-03-27T15:19:47.441Z,1.50
2019-03-27T15:22:22.254Z,1.87
2019-03-27T15:24:47.266Z,1.27
2019-03-27T15:27:16.362Z,1.53
2019-03-27T15:29:45.458Z,1.70
2019-03-27T15:32:14.445Z,1.63
2019-03-27T15:34:43.495Z,2.07
2019-03-27T15:37:12.515Z,1.70
2019-03-27T15:39:41.602Z,1.40
2019-03-27T15:42:10.632Z,1.60
2019-03-27T15:44:39.631Z,2.73
2019-03-27T15:47:08.639Z,1.63
2019-03-27T15:49:37.659Z,2.20
2019-03-27T15:52:06.643Z,1.53
2019-03-27T15:54:35.655Z,2.17
2019-03-27T15:57:04.660Z,2.10
2019-03-27T15:59:33.664Z,2.10
2019-03-27T16:02:02.666Z,2.80
2019-03-27T16:04:31.659Z,1.83
2019-03-27T16:07:00.642Z,2.40
2019-03-27T16:09:29.669Z,2.27
2019-03-27T16:11:58.910Z,2.30
2019-03-27T16:14:28.049Z,2.70
2019-03-27T16:17:12.304Z,2.63
2019-03-27T16:19:27.935Z,2.90
2019-03-27T16:21:56.910Z,3.37
2019-03-27T16:24:25.916Z,4.20
2019-03-27T16:27:04.378Z,4.53
2019-03-27T16:29:25.920Z,5.10
2019-03-27T16:31:55.860Z,3.77
2019-03-27T16:34:25.357Z,4.67
2019-03-27T16:36:54.832Z,5.43
2019-03-27T16:39:23.929Z,4.33
2019-03-27T16:41:52.962Z,5.13
2019-03-27T16:44:22.165Z,4.30
2019-03-27T16:46:51.253Z,4.30
2019-03-27T16:49:20.399Z,6.17
2019-03-27T16:51:49.465Z,4.27
2019-03-27T16:54:18.566Z,5.63
2019-03-27T16:56:47.637Z,4.90
2019-03-27T16:59:16.729Z,4.60
2019-03-27T17:01:45.804Z,6.13
2019-03-27T17:04:15.267Z,4.70
2019-03-27T17:06:44.343Z,4.27
2019-03-27T17:09:13.428Z,4.20
2019-03-27T17:11:42.842Z,5.17
2019-03-27T17:14:12.195Z,5.20
2019-03-27T17:16:41.258Z,4.87
2019-03-27T17:19:10.315Z,4.83
2019-03-27T17:21:39.573Z,4.50
2019-03-27T17:24:08.916Z,4.33
2019-03-27T17:26:38.009Z,4.50
2019-03-27T17:29:07.019Z,5.03
2019-03-27T17:31:36.122Z,4.10
2019-03-27T17:34:05.252Z,4.60
2019-03-27T17:36:34.265Z,4.00
2019-03-27T17:39:04.744Z,4.83
2019-03-27T17:41:33.737Z,4.57
2019-03-27T17:44:03.086Z,4.87
2019-03-27T17:46:32.188Z,4.87
2019-03-27T17:49:01.273Z,4.60
2019-03-27T17:51:30.287Z,4.53
2019-03-27T17:53:59.755Z,4.17
2019-03-27T17:56:28.788Z,4.20
2019-03-27T17:58:58.194Z,3.90
2019-03-27T18:01:27.435Z,4.10
2019-03-27T18:03:56.460Z,4.70
2019-03-27T18:06:25.452Z,4.70
2019-03-27T18:08:54.468Z,4.77
2019-03-27T18:11:23.477Z,4.70
2019-03-27T18:13:52.495Z,5.40
2019-03-27T18:16:21.493Z,4.27
2019-03-27T18:18:50.819Z,4.43
2019-03-27T18:21:21.448Z,4.63
2019-03-27T18:23:50.498Z,4.60
2019-03-27T18:26:19.493Z,4.00
2019-03-27T18:28:48.471Z,4.50
2019-03-27T18:31:17.552Z,4.50
2019-03-27T18:33:46.889Z,4.47
2019-03-27T18:36:15.997Z,4.47
2019-03-27T18:38:45.966Z,4.27
2019-03-27T18:41:15.267Z,3.53
2019-03-27T18:43:44.457Z,4.67
2019-03-27T18:46:13.675Z,4.60
2019-03-27T18:48:42.683Z,4.53
2019-03-27T18:51:11.767Z,5.00
2019-03-27T18:53:41.454Z,4.77
2019-03-27T18:56:10.730Z,4.60
2019-03-27T18:58:39.729Z,4.90
2019-03-27T19:01:09.071Z,3.83
2019-03-27T19:03:38.124Z,5.00
2019-03-27T19:06:07.227Z,4.73
2019-03-27T19:08:36.224Z,4.37
2019-03-27T19:11:05.212Z,4.93
2019-03-27T19:13:34.271Z,5.30
2019-03-27T19:16:03.268Z,5.77
2019-03-27T19:18:32.228Z,5.07
2019-03-27T19:21:01.507Z,5.30
2019-03-27T19:23:30.531Z,5.83
2019-03-27T19:25:59.545Z,6.40
2019-03-27T19:28:28.538Z,6.77
2019-03-27T19:30:57.541Z,6.70
2019-03-27T19:33:26.550Z,6.83
2019-03-27T19:35:55.575Z,6.27
2019-03-27T19:38:24.571Z,7.20
2019-03-27T19:40:53.579Z,8.10
2019-03-27T19:43:22.898Z,6.53
2019-03-27T19:45:51.940Z,6.53
2019-03-27T19:48:21.034Z,7.67
2019-03-27T19:50:50.425Z,6.00
2019-03-27T19:53:19.452Z,7.67
2019-03-27T19:55:48.798Z,7.17
2019-03-27T19:58:17.798Z,7.27
2019-03-27T20:00:46.803Z,6.90
2019-03-27T20:03:15.843Z,6.07
2019-03-27T20:05:44.854Z,6.90
2019-03-27T20:08:13.853Z,6.27
2019-03-27T20:10:42.887Z,7.20
2019-03-27T20:13:11.919Z,7.33
2019-03-27T20:15:41.256Z,8.83
2019-03-27T20:18:10.267Z,6.93
2019-03-27T20:20:39.294Z,7.07
2019-03-27T20:23:14.804Z,6.63
2019-03-27T20:25:39.068Z,7.97
2019-03-27T20:28:08.382Z,6.80
2019-03-27T20:30:37.400Z,8.33
2019-03-27T20:33:06.416Z,7.60
2019-03-27T20:35:35.434Z,7.00
2019-03-27T20:38:04.469Z,7.10
2019-03-27T20:40:33.453Z,6.83
2019-03-27T20:43:02.485Z,7.07
2019-03-27T20:45:31.514Z,8.37
2019-03-27T20:48:00.548Z,6.83
2019-03-27T20:50:29.593Z,7.20
2019-03-27T20:52:58.591Z,7.07
2019-03-27T20:55:30.715Z,7.87
2019-03-27T20:57:58.359Z,9.57
2019-03-27T21:00:27.383Z,8.47
2019-03-27T21:02:56.436Z,10.20
2019-03-27T21:05:25.708Z,9.37
2019-03-27T21:07:54.726Z,8.90
2019-03-27T21:10:23.741Z,9.80
2019-03-27T21:12:52.858Z,10.90
2019-03-27T21:15:21.839Z,10.43
2019-03-27T21:17:50.850Z,11.67
2019-03-27T21:20:20.183Z,10.37
2019-03-27T21:22:49.222Z,10.80
2019-03-27T21:25:18.236Z,11.13
2019-03-27T21:27:47.312Z,10.57
2019-03-27T21:30:16.397Z,11.03
2019-03-27T21:32:45.760Z,11.20
2019-03-27T21:35:14.783Z,9.60
2019-03-27T21:37:43.854Z,10.37
2019-03-27T21:40:16.142Z,10.20
2019-03-27T21:42:45.232Z,11.93
2019-03-27T21:45:14.711Z,10.73
2019-03-27T21:47:43.861Z,11.23
2019-03-27T21:50:12.950Z,9.93
2019-03-27T21:52:41.984Z,10.33
2019-03-27T21:55:21.916Z,9.13
2019-03-27T21:57:42.049Z,9.77
2019-03-27T22:00:11.271Z,9.23
2019-03-27T22:02:40.301Z,10.80
2019-03-27T22:05:09.294Z,8.83
2019-03-27T22:07:38.502Z,8.57
2019-03-27T22:10:08.105Z,8.70
2019-03-27T22:12:38.406Z,11.20
2019-03-27T22:15:09.657Z,9.60
2019-03-27T22:17:38.672Z,9.60
2019-03-27T22:20:07.991Z,9.80
2019-03-27T22:22:37.072Z,9.07
2019-03-27T22:25:07.096Z,7.23
2019-03-27T22:27:36.110Z,9.83
2019-03-27T22:30:06.333Z,9.63
2019-03-27T22:32:35.317Z,8.27
2019-03-27T22:35:04.477Z,8.37
2019-03-27T22:37:33.481Z,11.20
2019-03-27T22:40:02.495Z,9.83
2019-03-27T22:42:31.479Z,8.10
2019-03-27T22:45:00.485Z,9.37
2019-03-27T22:47:29.669Z,9.53
2019-03-27T22:49:58.667Z,10.03
2019-03-27T22:52:27.675Z,9.03
2019-03-27T22:54:56.676Z,9.33
2019-03-27T22:57:25.676Z,9.07
2019-03-27T22:59:54.736Z,8.23
2019-03-27T23:02:24.108Z,9.77
2019-03-27T23:04:53.451Z,10.30
2019-03-27T23:07:22.448Z,9.47
2019-03-27T23:09:51.481Z,8.50
2019-03-27T23:12:20.484Z,9.20
2019-03-27T23:14:49.502Z,8.33
2019-03-27T23:17:18.517Z,9.10
2019-03-27T23:19:47.557Z,8.90
2019-03-27T23:22:16.570Z,8.83
2019-03-27T23:24:45.654Z,8.33
2019-03-27T23:27:14.932Z,10.07
2019-03-27T23:29:43.928Z,10.10
2019-03-27T23:32:12.956Z,9.33
2019-03-27T23:34:41.970Z,8.13
2019-03-27T23:37:11.063Z,8.67
2019-03-27T23:39:40.036Z,9.37
2019-03-27T23:42:09.382Z,8.57
2019-03-27T23:44:38.948Z,9.17
2019-03-27T23:47:08.044Z,9.53
2019-03-27T23:49:37.048Z,10.10
2019-03-27T23:52:06.025Z,8.80
2019-03-27T23:54:35.344Z,8.73
2019-03-27T23:57:04.325Z,8.10
2019-03-27T23:59:33.326Z,11.53
